Time;durP1;ratioP1;P1;durP2;ratioP2;P2;SDS_P1;SDS_P2;PMS_P1;PMS_P2;Temp;Humidity;BMP_temperature;BMP_pressure;BME280_temperature;BME280_humidity;BME280_pressure;Samples;Min_cycle;Max_cycle;Signal;HPM_P1;HPM_P2
2023/03/23 00:01:46;;;;;;;1.85;1.30;;;;;;;6.22;52.34;94644.09;5037061;28;20033;-74
2023/03/23 00:04:12;;;;;;;1.38;1.27;;;;;;;6.09;51.69;94648.16;5038905;28;20070;-74
2023/03/23 00:06:38;;;;;;;3.08;1.65;;;;;;;5.98;52.45;94648.53;5038268;28;20021;-74
2023/03/23 00:09:03;;;;;;;1.77;1.20;;;;;;;6.33;51.91;94656.13;5038286;28;20052;-74
2023/03/23 00:11:30;;;;;;;1.75;1.63;;;;;;;6.19;52.20;94650.56;5037496;28;20036;-74
2023/03/23 00:13:57;;;;;;;1.40;1.27;;;;;;;5.85;53.77;94675.53;5020477;28;20375;-74
2023/03/23 00:16:31;;;;;;;1.42;1.30;;;;;;;5.70;56.49;94663.03;5020454;28;20071;-73
2023/03/23 00:18:59;;;;;;;2.53;1.55;;;;;;;4.87;58.09;94638.59;5038016;28;20804;-73
2023/03/23 00:21:35;;;;;;;2.55;1.70;;;;;;;4.89;57.99;94639.25;5020891;28;20060;-74
2023/03/23 00:24:11;;;;;;;1.92;1.60;;;;;;;5.16;57.10;94647.81;5036808;28;20041;-74
2023/03/23 00:26:39;;;;;;;2.05;1.70;;;;;;;5.17;56.45;94625.72;5038547;28;20079;-74
2023/03/23 00:29:05;;;;;;;3.13;1.77;;;;;;;6.41;54.04;94619.06;5036285;28;20047;-74
2023/03/23 00:31:34;;;;;;;3.03;1.27;;;;;;;6.17;54.08;94620.88;5036019;28;20440;-74
2023/03/23 00:34:01;;;;;;;1.58;1.48;;;;;;;6.40;52.97;94609.47;5004716;28;20058;-74
2023/03/23 00:36:27;;;;;;;2.45;1.50;;;;;;;6.41;53.08;94605.00;5017651;28;20065;-74
2023/03/23 00:38:52;;;;;;;2.28;1.40;;;;;;;6.21;53.35;94601.00;5037810;28;20041;-73
2023/03/23 00:41:17;;;;;;;2.65;1.58;;;;;;;6.68;52.33;94601.03;5037326;28;20051;-74
2023/03/23 00:43:43;;;;;;;3.95;2.38;;;;;;;6.52;52.17;94603.81;5035678;28;20037;-73
2023/03/23 00:46:09;;;;;;;1.33;1.25;;;;;;;5.85;54.42;94612.13;5037863;28;20094;-74
2023/03/23 00:48:35;;;;;;;2.30;1.40;;;;;;;5.55;54.85;94604.00;5036919;28;20484;-73
2023/03/23 00:51:05;;;;;;;1.95;1.77;;;;;;;4.88;57.58;94627.88;5035331;28;20048;-74
2023/03/23 00:53:32;;;;;;;1.88;1.40;;;;;;;4.93;58.08;94611.56;5035851;28;20029;-73
2023/03/23 00:55:57;;;;;;;3.28;1.70;;;;;;;4.55;58.19;94633.16;5035187;28;20124;-73
2023/03/23 00:58:23;;;;;;;1.90;1.63;;;;;;;4.55;58.80;94614.72;5037417;28;20039;-74
2023/03/23 01:00:48;;;;;;;2.78;1.85;;;;;;;5.55;56.14;94594.25;5033795;28;20075;-73
2023/03/23 01:03:18;;;;;;;2.45;1.58;;;;;;;5.15;57.23;94599.50;5036735;28;20487;-73
2023/03/23 01:05:46;;;;;;;3.13;1.90;;;;;;;4.75;57.63;94596.75;5028617;28;20482;-73
2023/03/23 01:08:12;;;;;;;2.33;1.80;;;;;;;4.91;57.57;94580.09;5035694;28;20044;-74
2023/03/23 01:10:38;;;;;;;4.03;1.80;;;;;;;5.26;56.71;94579.00;5037078;28;20033;-74
2023/03/23 01:13:04;;;;;;;2.72;1.80;;;;;;;5.24;56.82;94578.38;5036884;28;20128;-74
2023/03/23 01:15:30;;;;;;;2.88;1.50;;;;;;;5.49;56.01;94581.75;5018790;28;20362;-74
2023/03/23 01:17:55;;;;;;;3.03;1.80;;;;;;;5.16;57.43;94582.69;5037090;28;20098;-73
2023/03/23 01:20:21;;;;;;;6.53;1.75;;;;;;;4.89;57.11;94591.75;5020505;28;20393;-73
2023/03/23 01:22:46;;;;;;;3.80;1.45;;;;;;;5.11;57.56;94574.47;5037812;28;20436;-74
2023/03/23 01:25:13;;;;;;;2.25;1.67;;;;;;;5.32;55.90;94592.38;5037551;28;20478;-73
2023/03/23 01:27:38;;;;;;;1.63;1.38;;;;;;;5.64;55.46;94575.75;5035832;28;20040;-73
2023/03/23 01:30:05;;;;;;;3.47;1.70;;;;;;;5.45;56.13;94562.78;5036846;28;20043;-74
2023/03/23 01:32:31;;;;;;;1.50;1.40;;;;;;;5.75;55.21;94570.09;5020364;28;20487;-73
2023/03/23 01:34:56;;;;;;;1.95;1.80;;;;;;;5.25;56.96;94554.47;5038439;28;20032;-74
2023/03/23 01:37:25;;;;;;;3.72;1.85;;;;;;;6.40;53.04;94545.19;5035993;28;20033;-74
2023/03/23 01:39:53;;;;;;;4.68;2.55;;;;;;;6.66;52.68;94549.31;5027144;28;20056;-74
2023/03/23 01:42:18;;;;;;;2.13;1.60;;;;;;;6.37;53.01;94562.25;5034501;28;20048;-74
2023/03/23 01:44:43;;;;;;;2.83;1.63;;;;;;;6.36;53.54;94536.81;5034541;28;20037;-74
2023/03/23 01:47:09;;;;;;;3.47;1.90;;;;;;;4.83;60.46;94572.19;5036512;28;20059;-74
2023/03/23 01:49:36;;;;;;;2.47;1.83;;;;;;;5.07;61.82;94565.25;5036355;28;20804;-74
2023/03/23 01:52:18;;;;;;;2.10;1.58;;;;;;;5.09;61.30;94566.72;5035126;28;20052;-73
2023/03/23 01:54:44;;;;;;;1.90;1.48;;;;;;;5.00;62.22;94572.16;5021507;28;20401;-74
2023/03/23 01:57:15;;;;;;;2.80;1.80;;;;;;;5.18;60.51;94570.16;5035219;28;20310;-74
2023/03/23 01:59:42;;;;;;;1.85;1.63;;;;;;;4.51;65.46;94558.03;5021331;28;20075;-74
2023/03/23 02:02:08;;;;;;;2.17;1.85;;;;;;;5.15;62.32;94553.81;5030616;28;20520;-74
2023/03/23 02:04:33;;;;;;;3.83;2.13;;;;;;;5.57;60.80;94554.47;5038841;28;20037;-73
2023/03/23 02:06:58;;;;;;;3.15;1.77;;;;;;;5.81;60.09;94547.41;5038518;28;20561;-74
2023/03/23 02:09:25;;;;;;;1.65;1.50;;;;;;;5.42;60.51;94549.94;5021867;28;20031;-74
2023/03/23 02:11:50;;;;;;;2.13;1.90;;;;;;;6.08;59.01;94546.09;5038453;28;20033;-74
2023/03/23 02:14:16;;;;;;;3.63;1.77;;;;;;;5.81;59.89;94544.75;5037643;28;20551;-74
2023/03/23 02:22:57;;;;;;;2.35;2.15;;;;;;;6.72;57.13;94540.63;5897842;22;20571;-73
2023/03/23 02:25:41;;;;;;;1.88;1.40;;;;;;;6.42;56.51;94528.16;5023760;28;20049;-73
2023/03/23 02:28:37;;;;;;;3.10;1.95;;;;;;;6.67;56.76;94530.63;5029591;28;20045;-73
2023/03/23 02:31:18;;;;;;;1.80;1.67;;;;;;;6.68;56.13;94532.25;5039370;28;20448;-73
2023/03/23 02:33:49;;;;;;;2.38;1.60;;;;;;;6.41;56.28;94523.03;5026855;28;20035;-73
2023/03/23 02:36:20;;;;;;;2.03;1.52;;;;;;;6.46;56.28;94523.34;5036387;28;20527;-73
2023/03/23 02:38:52;;;;;;;3.13;1.90;;;;;;;6.55;55.82;94527.56;5038371;28;20516;-73
2023/03/23 02:41:19;;;;;;;2.50;1.65;;;;;;;5.50;58.84;94529.78;5038633;28;20127;-73
2023/03/23 02:43:45;;;;;;;2.40;1.75;;;;;;;6.58;54.24;94534.31;5037117;28;20367;-72
2023/03/23 02:46:10;;;;;;;1.63;1.52;;;;;;;5.63;57.89;94527.38;5021389;28;20025;-73
2023/03/23 02:48:36;;;;;;;2.33;1.60;;;;;;;5.08;60.70;94524.66;5019810;28;20047;-73
2023/03/23 02:51:01;;;;;;;5.07;1.63;;;;;;;6.46;56.42;94518.84;5037567;28;20037;-73
2023/03/23 02:53:27;;;;;;;3.38;1.80;;;;;;;6.83;55.49;94510.28;5004995;28;20028;-73
2023/03/23 02:55:53;;;;;;;1.40;1.30;;;;;;;7.05;54.40;94513.84;5037343;28;20249;-73
2023/03/23 02:58:18;;;;;;;3.45;1.40;;;;;;;6.31;56.45;94515.34;5021212;28;20159;-73
2023/03/23 03:00:44;;;;;;;1.45;1.35;;;;;;;6.05;56.48;94519.22;5027380;28;20029;-73
2023/03/23 03:03:14;;;;;;;2.10;1.58;;;;;;;6.13;57.40;94513.84;5038328;28;20056;-73
2023/03/23 03:05:51;;;;;;;2.63;1.80;;;;;;;5.12;61.04;94511.94;5020592;28;20028;-73
2023/03/23 03:08:39;;;;;;;3.53;1.58;;;;;;;6.28;56.86;94510.41;5036915;28;20447;-73
2023/03/23 03:11:15;;;;;;;1.97;1.43;;;;;;;5.98;57.61;94511.97;5036560;28;20506;-73
2023/03/23 03:13:51;;;;;;;1.63;1.35;;;;;;;6.11;57.39;94524.59;5037230;28;20033;-73
2023/03/23 03:16:38;;;;;;;2.60;1.70;;;;;;;5.84;57.33;94532.06;5038003;28;20461;-73
2023/03/23 03:19:07;;;;;;;1.42;1.33;;;;;;;5.62;58.78;94523.09;5038283;28;20566;-73
2023/03/23 03:21:35;;;;;;;2.58;1.63;;;;;;;5.52;58.86;94535.69;5036926;28;20375;-73
2023/03/23 03:24:01;;;;;;;3.33;1.48;;;;;;;5.07;60.60;94533.56;5027642;28;20042;-73
2023/03/23 03:26:28;;;;;;;4.68;1.70;;;;;;;4.87;61.72;94525.19;5021799;28;20063;-73
2023/03/23 03:28:53;;;;;;;2.45;1.50;;;;;;;4.81;61.86;94534.59;5026265;28;20052;-73
2023/03/23 03:31:21;;;;;;;2.60;1.55;;;;;;;5.15;61.14;94541.47;5024181;28;20037;-73
2023/03/23 03:33:47;;;;;;;1.92;1.17;;;;;;;5.25;61.63;94529.88;5021869;28;20060;-73
2023/03/23 03:36:21;;;;;;;1.67;1.58;;;;;;;5.31;61.29;94531.84;5008288;28;20405;-73
2023/03/23 03:38:49;;;;;;;4.32;1.73;;;;;;;4.80;63.02;94522.41;5024389;28;20126;-73
2023/03/23 03:41:15;;;;;;;2.50;1.48;;;;;;;4.84;63.73;94539.53;5027126;28;20437;-73
2023/03/23 03:43:40;;;;;;;2.05;1.60;;;;;;;4.63;63.03;94529.53;5020056;28;20041;-73
2023/03/23 03:46:05;;;;;;;2.20;1.70;;;;;;;4.40;65.03;94538.13;5023656;28;20040;-73
2023/03/23 03:48:31;;;;;;;3.28;1.67;;;;;;;5.05;63.59;94530.25;5026569;28;20049;-73
2023/03/23 03:50:56;;;;;;;1.58;1.27;;;;;;;5.24;62.22;94539.63;5021712;28;20563;-73
2023/03/23 03:53:26;;;;;;;2.50;1.83;;;;;;;4.96;64.36;94535.53;5019256;28;20091;-73
2023/03/23 03:55:55;;;;;;;2.25;1.65;;;;;;;4.99;63.58;94505.38;5021524;28;20525;-73
2023/03/23 03:58:21;;;;;;;2.28;2.08;;;;;;;4.87;64.74;94496.19;5023378;28;20246;-73
2023/03/23 04:00:47;;;;;;;3.00;2.20;;;;;;;5.85;61.83;94506.47;5022793;28;20419;-74
2023/03/23 04:03:13;;;;;;;3.58;2.00;;;;;;;5.90;59.79;94519.97;5035532;28;20038;-74
2023/03/23 04:05:39;;;;;;;5.05;2.05;;;;;;;5.20;63.87;94515.38;5027861;28;20079;-74
2023/03/23 04:08:04;;;;;;;3.22;1.90;;;;;;;4.73;65.91;94527.50;5022772;28;20045;-74
2023/03/23 04:10:30;;;;;;;2.95;2.10;;;;;;;4.15;65.82;94523.13;5022712;28;20238;-73
2023/03/23 04:12:55;;;;;;;2.90;1.60;;;;;;;5.27;63.54;94514.69;5004450;28;20071;-74
2023/03/23 04:15:21;;;;;;;3.88;2.00;;;;;;;6.28;60.16;94497.19;5022842;28;20036;-74
2023/03/23 04:17:46;;;;;;;2.65;2.30;;;;;;;6.50;59.25;94499.00;5021679;28;20022;-74
2023/03/23 04:20:17;;;;;;;3.38;2.22;;;;;;;5.91;59.93;94510.22;5022744;28;20071;-74
2023/03/23 04:22:44;;;;;;;2.20;1.90;;;;;;;5.94;60.19;94515.13;5023720;28;20053;-74
2023/03/23 04:25:11;;;;;;;3.42;1.90;;;;;;;6.75;58.84;94517.31;5020929;28;20037;-74
2023/03/23 04:27:37;;;;;;;2.78;2.00;;;;;;;6.79;57.63;94524.84;5023302;28;20033;-73
2023/03/23 04:30:04;;;;;;;2.33;1.80;;;;;;;6.98;57.57;94516.41;5024957;28;20582;-74
2023/03/23 04:32:30;;;;;;;3.30;2.10;;;;;;;6.47;59.49;94522.34;5023503;28;20068;-74
2023/03/23 04:34:57;;;;;;;3.67;1.92;;;;;;;7.06;57.90;94512.84;5024856;28;20076;-73
2023/03/23 04:37:25;;;;;;;3.40;2.30;;;;;;;7.06;57.36;94517.31;5002588;28;20025;-74
2023/03/23 04:39:59;;;;;;;2.60;2.27;;;;;;;7.11;55.28;94513.09;5018526;28;20521;-74
2023/03/23 04:42:28;;;;;;;3.55;2.20;;;;;;;7.05;55.17;94491.84;5019777;28;20264;-74
2023/03/23 04:44:54;;;;;;;6.82;2.30;;;;;;;6.76;57.87;94492.50;5029209;28;20048;-74
2023/03/23 04:47:20;;;;;;;2.40;2.05;;;;;;;7.20;57.04;94481.22;5028940;28;20132;-74
2023/03/23 04:49:45;;;;;;;3.20;2.00;;;;;;;7.46;55.93;94494.00;5031458;28;20122;-74
2023/03/23 04:52:11;;;;;;;3.10;2.20;;;;;;;7.41;56.72;94493.72;5020601;28;20041;-74
2023/03/23 04:54:36;;;;;;;2.05;1.83;;;;;;;6.65;58.20;94498.22;5020742;28;20549;-74
2023/03/23 04:57:03;;;;;;;9.43;7.00;;;;;;;6.82;58.27;94498.03;5022073;28;20497;-74
2023/03/23 04:59:30;;;;;;;12.35;9.02;;;;;;;7.06;57.21;94506.72;5019916;28;20493;-74
2023/03/23 05:01:56;;;;;;;9.88;7.05;;;;;;;7.25;56.61;94508.00;5003297;28;20029;-74
2023/03/23 05:04:22;;;;;;;3.38;2.13;;;;;;;6.07;60.07;94517.19;5001356;28;20458;-74
2023/03/23 05:06:48;;;;;;;9.05;6.57;;;;;;;6.92;58.50;94519.78;5018282;28;20036;-74
2023/03/23 05:09:13;;;;;;;2.53;1.90;;;;;;;6.87;58.42;94530.09;5021754;28;20410;-74
2023/03/23 05:11:39;;;;;;;4.90;3.85;;;;;;;6.77;58.78;94533.81;5031722;28;20134;-74
2023/03/23 05:14:05;;;;;;;2.80;2.60;;;;;;;6.89;58.98;94528.06;5031153;28;20314;-74
2023/03/23 05:16:30;;;;;;;3.33;1.73;;;;;;;6.85;59.29;94532.09;5026323;28;20040;-74
2023/03/23 05:18:57;;;;;;;2.85;2.58;;;;;;;7.31;58.10;94540.84;5032417;28;20591;-74
2023/03/23 05:21:23;;;;;;;11.07;7.38;;;;;;;7.06;57.97;94554.34;5013134;28;20120;-74
2023/03/23 05:23:54;;;;;;;4.00;2.08;;;;;;;5.32;63.56;94560.69;5023539;28;20083;-74
2023/03/23 05:26:28;;;;;;;4.40;2.50;;;;;;;5.98;62.23;94559.53;5031244;28;20033;-74
2023/03/23 05:28:54;;;;;;;3.35;2.90;;;;;;;5.91;62.03;94544.56;5020527;28;20045;-74
2023/03/23 05:31:19;;;;;;;6.82;4.50;;;;;;;6.42;61.22;94538.72;5027351;28;20445;-74
2023/03/23 05:33:45;;;;;;;2.42;2.08;;;;;;;5.25;63.94;94527.22;5026669;28;20100;-74
2023/03/23 05:36:13;;;;;;;7.97;4.53;;;;;;;6.27;61.58;94545.78;5029678;28;20063;-74
2023/03/23 05:38:41;;;;;;;5.67;3.37;;;;;;;6.06;62.28;94540.16;5026105;28;20132;-74
2023/03/23 05:41:07;;;;;;;2.67;2.00;;;;;;;6.37;61.30;94528.66;5009854;28;20847;-74
2023/03/23 05:43:33;;;;;;;3.80;2.22;;;;;;;6.41;61.00;94542.38;5026207;28;20086;-74
2023/03/23 05:45:58;;;;;;;6.93;4.00;;;;;;;6.68;60.28;94544.66;5024691;28;20087;-74
2023/03/23 05:48:24;;;;;;;3.58;2.25;;;;;;;5.92;62.82;94554.94;5027517;28;20037;-74
2023/03/23 05:50:50;;;;;;;5.53;2.83;;;;;;;6.30;61.77;94550.72;5024697;28;20422;-74
2023/03/23 05:53:16;;;;;;;3.20;2.20;;;;;;;6.29;61.79;94549.88;5026651;28;20129;-74
2023/03/23 05:55:41;;;;;;;4.63;2.00;;;;;;;5.93;62.71;94539.91;5024120;28;20072;-74
2023/03/23 05:58:06;;;;;;;6.07;2.25;;;;;;;5.04;65.23;94528.59;5024120;28;20029;-74
2023/03/23 06:00:32;;;;;;;23.58;12.32;;;;;;;5.51;63.85;94536.69;5022847;28;20509;-74
2023/03/23 06:02:57;;;;;;;12.00;6.07;;;;;;;5.96;62.81;94526.38;5027746;28;20037;-74
2023/03/23 06:05:25;;;;;;;5.93;3.47;;;;;;;6.37;61.09;94526.03;5010682;28;20033;-74
2023/03/23 06:07:51;;;;;;;3.72;2.03;;;;;;;6.12;60.62;94559.75;5026619;28;20068;-74
2023/03/23 06:10:17;;;;;;;2.15;1.95;;;;;;;5.70;63.01;94549.47;5026087;28;20326;-74
2023/03/23 06:12:43;;;;;;;2.92;2.00;;;;;;;5.78;62.19;94538.03;5027025;28;20361;-74
2023/03/23 06:15:09;;;;;;;2.78;2.00;;;;;;;5.56;64.11;94551.03;5026596;28;20032;-74
2023/03/23 06:17:36;;;;;;;2.90;2.20;;;;;;;6.71;60.22;94547.78;5025653;28;20126;-74
2023/03/23 06:20:04;;;;;;;2.42;1.90;;;;;;;6.02;61.58;94545.97;5010967;28;20509;-74
2023/03/23 06:22:29;;;;;;;2.95;2.05;;;;;;;5.53;62.06;94539.97;5024846;28;20105;-74
2023/03/23 06:24:56;;;;;;;3.58;2.20;;;;;;;4.89;66.03;94563.59;5009223;28;20578;-74
2023/03/23 06:27:23;;;;;;;2.83;2.20;;;;;;;5.78;62.53;94556.50;5024308;28;20819;-74
2023/03/23 06:29:48;;;;;;;11.82;7.10;;;;;;;5.60;63.66;94562.88;5024734;28;20034;-74
2023/03/23 06:32:17;;;;;;;3.95;2.45;;;;;;;5.64;62.36;94581.03;5023587;28;20045;-74
2023/03/23 06:34:43;;;;;;;3.17;2.50;;;;;;;5.78;61.88;94556.50;5027128;28;20489;-74
2023/03/23 06:37:09;;;;;;;2.35;2.08;;;;;;;6.13;60.16;94572.81;5026248;28;20040;-74
2023/03/23 06:39:35;;;;;;;3.88;2.85;;;;;;;6.90;58.94;94556.16;5028694;28;20041;-74
2023/03/23 06:42:01;;;;;;;3.83;2.60;;;;;;;7.10;57.93;94550.34;5024411;28;20521;-74
2023/03/23 06:44:26;;;;;;;6.13;2.40;;;;;;;7.11;57.77;94552.00;5022335;28;20049;-74
2023/03/23 06:46:52;;;;;;;2.65;2.42;;;;;;;7.34;56.90;94541.31;5025236;28;20033;-74
2023/03/23 06:49:17;;;;;;;3.13;2.10;;;;;;;7.41;56.70;94547.50;5024885;28;20793;-69
2023/03/23 06:51:42;;;;;;;2.42;1.90;;;;;;;6.96;57.38;94551.97;5024689;28;20067;-69
2023/03/23 06:54:08;;;;;;;2.05;1.88;;;;;;;4.83;64.45;94540.53;5019172;28;20037;-69
2023/03/23 06:56:34;;;;;;;3.85;2.67;;;;;;;6.71;59.23;94545.13;5019255;28;20041;-69
2023/03/23 06:58:59;;;;;;;2.97;2.22;;;;;;;6.40;60.05;94564.53;5022467;28;20037;-69
2023/03/23 07:01:25;;;;;;;3.00;2.40;;;;;;;6.97;58.03;94545.69;5023017;28;20029;-70
2023/03/23 07:03:50;;;;;;;12.68;7.65;;;;;;;6.81;58.61;94549.31;5024620;28;20189;-70
2023/03/23 07:06:16;;;;;;;7.32;4.45;;;;;;;7.32;56.15;94555.72;5021624;28;20029;-70
2023/03/23 07:08:41;;;;;;;3.50;2.20;;;;;;;5.12;62.04;94557.63;5022407;28;20079;-70
2023/03/23 07:11:07;;;;;;;5.57;2.72;;;;;;;5.77;61.84;94557.50;5018121;28;20072;-69
2023/03/23 07:13:33;;;;;;;2.95;2.08;;;;;;;7.34;56.32;94561.69;5020052;28;20313;-70
2023/03/23 07:15:59;;;;;;;2.50;2.28;;;;;;;7.09;57.69;94564.59;5027109;28;20034;-70
2023/03/23 07:18:24;;;;;;;3.15;2.00;;;;;;;6.19;60.13;94576.56;5023736;28;20115;-70
2023/03/23 07:20:50;;;;;;;2.70;2.22;;;;;;;6.27;58.77;94567.78;5024567;28;20059;-70
2023/03/23 07:23:16;;;;;;;3.80;2.38;;;;;;;7.02;56.61;94583.84;5019009;28;20124;-69
2023/03/23 07:25:42;;;;;;;3.60;2.00;;;;;;;7.20;56.44;94576.53;5025436;28;20124;-70
2023/03/23 07:28:08;;;;;;;1.77;1.67;;;;;;;7.49;55.37;94578.38;5024306;28;20033;-70
2023/03/23 07:30:33;;;;;;;3.40;2.10;;;;;;;7.11;56.05;94592.50;5023485;28;20036;-70
2023/03/23 07:32:59;;;;;;;3.58;2.25;;;;;;;6.90;57.15;94593.22;5034384;28;20045;-70
2023/03/23 07:35:25;;;;;;;4.80;2.10;;;;;;;6.27;58.78;94601.28;5017426;28;20056;-70
2023/03/23 07:37:51;;;;;;;2.80;2.00;;;;;;;6.08;59.51;94604.22;5021835;28;20032;-70
2023/03/23 07:40:17;;;;;;;4.65;1.95;;;;;;;5.87;60.29;94596.91;5024421;28;20088;-70
2023/03/23 07:42:44;;;;;;;1.75;1.63;;;;;;;6.17;59.56;94598.88;5027385;28;20489;-70
2023/03/23 07:45:11;;;;;;;3.33;2.10;;;;;;;7.02;57.05;94598.91;5027894;28;20041;-70
2023/03/23 07:47:37;;;;;;;2.20;2.00;;;;;;;7.34;56.61;94598.75;5024878;28;20565;-70
2023/03/23 07:50:03;;;;;;;3.50;2.00;;;;;;;7.49;55.09;94604.88;5018747;28;20040;-70
2023/03/23 07:52:30;;;;;;;2.53;1.80;;;;;;;7.56;54.84;94607.59;5024166;28;20122;-70
2023/03/23 07:54:55;;;;;;;3.47;2.20;;;;;;;7.33;54.39;94612.97;5025044;28;20029;-69
2023/03/23 07:57:21;;;;;;;3.35;2.22;;;;;;;6.37;58.01;94630.97;5022817;28;20047;-70
2023/03/23 07:59:47;;;;;;;2.03;1.88;;;;;;;7.36;55.51;94620.56;5026015;28;20753;-70
2023/03/23 08:02:13;;;;;;;3.92;1.75;;;;;;;7.41;55.29;94616.34;5019863;28;20099;-70
2023/03/23 08:04:38;;;;;;;2.78;2.13;;;;;;;6.49;57.46;94629.59;5022696;28;20041;-70
2023/03/23 08:07:04;;;;;;;4.35;2.10;;;;;;;7.34;55.26;94618.09;5023305;28;20055;-70
2023/03/23 08:09:30;;;;;;;2.00;1.80;;;;;;;7.53;53.31;94627.31;5020399;28;20477;-70
2023/03/23 08:11:56;;;;;;;8.18;3.83;;;;;;;6.41;56.92;94626.97;5019374;28;20595;-70
2023/03/23 08:14:21;;;;;;;15.48;8.15;;;;;;;6.67;56.92;94615.25;5024444;28;20445;-70
2023/03/23 08:16:48;;;;;;;2.97;2.50;;;;;;;5.93;57.83;94624.47;5022531;28;20544;-70
2023/03/23 08:19:13;;;;;;;2.88;2.20;;;;;;;5.74;58.68;94634.44;5027644;28;20552;-70
2023/03/23 08:21:38;;;;;;;5.60;3.50;;;;;;;6.45;57.63;94630.91;5023860;28;20056;-70
2023/03/23 08:24:05;;;;;;;5.80;3.92;;;;;;;6.75;57.26;94622.28;5021283;28;20049;-70
2023/03/23 08:26:30;;;;;;;7.32;4.32;;;;;;;6.70;56.77;94614.06;5018920;28;20037;-70
2023/03/23 08:28:57;;;;;;;5.53;2.47;;;;;;;6.11;57.54;94619.75;5020503;28;20041;-70
2023/03/23 08:31:23;;;;;;;6.28;2.00;;;;;;;7.25;55.84;94619.19;5020499;28;20037;-70
2023/03/23 08:33:48;;;;;;;3.20;1.80;;;;;;;6.64;56.88;94620.91;5024941;28;20029;-70
2023/03/23 08:36:14;;;;;;;2.78;2.30;;;;;;;6.35;56.66;94630.31;5021964;28;20073;-70
2023/03/23 08:38:39;;;;;;;7.85;5.70;;;;;;;7.09;55.36;94623.66;5016501;28;20040;-70
2023/03/23 08:41:05;;;;;;;5.05;2.92;;;;;;;6.45;57.26;94615.06;5017953;28;20052;-70
2023/03/23 08:43:32;;;;;;;2.40;1.55;;;;;;;7.64;53.52;94633.97;5026587;28;20594;-70
2023/03/23 08:45:58;;;;;;;2.58;2.10;;;;;;;7.46;53.00;94625.56;5022094;28;20039;-69
2023/03/23 08:48:23;;;;;;;5.28;3.72;;;;;;;5.69;59.15;94623.59;5021576;28;20045;-70
2023/03/23 08:50:49;;;;;;;6.85;4.47;;;;;;;7.61;53.81;94620.28;5020746;28;20162;-69
2023/03/23 08:53:15;;;;;;;5.80;3.45;;;;;;;8.21;52.07;94608.78;5022406;28;20053;-70
2023/03/23 08:55:40;;;;;;;3.95;2.45;;;;;;;8.51;51.39;94625.41;5020780;28;20048;-71
2023/03/23 08:58:06;;;;;;;1.67;1.58;;;;;;;7.59;52.92;94627.59;5022999;28;20116;-71
2023/03/23 09:00:32;;;;;;;2.42;1.80;;;;;;;8.14;52.98;94624.63;5019850;28;20037;-71
2023/03/23 09:02:57;;;;;;;2.53;1.95;;;;;;;7.73;52.88;94629.41;5022969;28;20509;-70
2023/03/23 09:05:25;;;;;;;3.53;2.40;;;;;;;5.35;60.54;94644.00;5026852;28;20445;-71
2023/03/23 09:07:52;;;;;;;3.45;2.03;;;;;;;6.44;57.81;94634.56;5020952;28;20415;-71
2023/03/23 09:10:17;;;;;;;5.22;2.60;;;;;;;6.76;56.30;94635.34;5020725;28;20034;-71
2023/03/23 09:12:43;;;;;;;2.97;2.00;;;;;;;7.01;56.34;94637.75;5022398;28;20048;-71
2023/03/23 09:15:10;;;;;;;5.28;3.25;;;;;;;6.96;56.63;94637.50;5022167;28;20162;-70
2023/03/23 09:17:37;;;;;;;5.78;3.03;;;;;;;7.66;55.00;94634.59;5019912;28;20036;-71
2023/03/23 09:20:07;;;;;;;4.07;1.98;;;;;;;6.60;56.20;94631.00;5022836;28;20567;-71
2023/03/23 09:22:32;;;;;;;3.75;2.38;;;;;;;6.23;58.10;94629.91;5031376;28;20563;-70
2023/03/23 09:24:58;;;;;;;3.85;2.35;;;;;;;6.45;57.35;94628.28;5025134;28;20045;-71
2023/03/23 09:27:23;;;;;;;3.35;1.70;;;;;;;6.97;56.72;94640.97;5026478;28;20243;-71
2023/03/23 09:29:49;;;;;;;5.75;4.07;;;;;;;6.52;58.61;94649.56;5029233;28;20469;-71
2023/03/23 09:32:15;;;;;;;2.50;1.80;;;;;;;7.10;56.48;94650.91;5021690;28;20397;-71
2023/03/23 09:34:40;;;;;;;10.00;6.35;;;;;;;7.78;54.65;94636.81;5025584;28;20033;-71
2023/03/23 09:37:06;;;;;;;2.58;1.73;;;;;;;7.95;55.12;94644.59;5020039;28;20128;-71
2023/03/23 09:39:31;;;;;;;2.90;1.98;;;;;;;7.65;54.67;94670.06;5022775;28;20034;-70
2023/03/23 09:42:24;;;;;;;4.65;2.60;;;;;;;7.07;56.54;94648.66;5022641;28;20030;-70
2023/03/23 09:45:28;;;;;;;6.20;2.80;;;;;;;7.25;58.25;94662.34;5017398;28;20098;-70
2023/03/23 09:48:05;;;;;;;327.10;101.57;;;;;;;7.60;57.22;94653.06;5012506;28;20565;-70
2023/03/23 09:50:33;;;;;;;329.60;121.50;;;;;;;7.38;56.88;94659.09;5022272;28;20360;-70
2023/03/23 09:53:08;;;;;;;5.32;3.55;;;;;;;7.01;57.26;94672.16;5017503;28;20041;-70
2023/03/23 09:55:35;;;;;;;5.80;2.92;;;;;;;7.51;56.58;94662.94;5032440;28;20558;-70
2023/03/23 09:58:16;;;;;;;11.13;7.82;;;;;;;7.41;55.87;94656.09;5023555;28;20783;-70
2023/03/23 10:01:10;;;;;;;6.00;3.38;;;;;;;8.25;53.69;94657.75;5020851;28;20288;-70
2023/03/23 10:03:40;;;;;;;3.28;1.80;;;;;;;8.29;53.51;94659.03;5019412;28;20049;-70
2023/03/23 10:06:09;;;;;;;6.25;4.07;;;;;;;8.12;53.79;94674.34;5020816;28;20040;-70
2023/03/23 10:08:34;;;;;;;2.03;1.85;;;;;;;7.42;55.78;94678.09;5022258;28;20038;-70
2023/03/23 10:11:03;;;;;;;3.63;2.53;;;;;;;7.26;55.71;94660.53;5029568;28;20150;-69
2023/03/23 10:14:10;;;;;;;2.47;1.67;;;;;;;6.71;58.09;94663.31;5025164;28;20017;-70
2023/03/23 10:16:42;;;;;;;4.85;1.90;;;;;;;8.21;53.00;94673.25;5010505;28;20041;-70
2023/03/23 10:19:18;;;;;;;3.13;1.98;;;;;;;7.66;54.48;94660.28;5008367;28;20041;-70
2023/03/23 10:21:51;;;;;;;2.53;1.70;;;;;;;8.05;51.53;94664.50;5028524;28;20057;-70
2023/03/23 10:24:17;;;;;;;2.25;1.30;;;;;;;8.22;51.51;94658.13;5019930;28;20045;-70
2023/03/23 10:26:52;;;;;;;2.17;1.77;;;;;;;7.93;51.86;94642.13;5020901;28;20164;-70
2023/03/23 10:29:43;;;;;;;2.63;1.45;;;;;;;7.06;52.73;94641.69;5025803;28;20052;-70
2023/03/23 10:32:13;;;;;;;4.53;2.47;;;;;;;7.37;54.17;94648.66;5023802;28;20795;-70
2023/03/23 10:35:05;;;;;;;4.30;3.08;;;;;;;7.51;54.01;94653.16;5025898;28;20033;-70
2023/03/23 10:37:39;;;;;;;3.15;2.50;;;;;;;6.47;56.25;94652.69;5018959;28;20119;-70
2023/03/23 10:40:09;;;;;;;1.77;1.65;;;;;;;7.23;54.60;94650.31;5006402;28;20379;-70
2023/03/23 10:42:35;;;;;;;1.77;1.65;;;;;;;6.86;55.12;94666.00;5021647;28;20036;-70
2023/03/23 10:45:15;;;;;;;2.92;2.03;;;;;;;7.20;54.29;94661.25;5023060;28;20525;-70
2023/03/23 10:47:43;;;;;;;1.90;1.80;;;;;;;6.89;55.98;94663.00;5021590;28;20037;-70
2023/03/23 10:50:17;;;;;;;4.05;2.75;;;;;;;7.92;53.70;94669.63;5024857;28;20037;-70
2023/03/23 10:52:44;;;;;;;2.50;1.83;;;;;;;7.87;52.38;94659.59;5023910;28;20041;-70
2023/03/23 10:55:09;;;;;;;1.52;1.40;;;;;;;6.93;54.16;94666.94;5018132;28;20040;-70
2023/03/23 10:57:36;;;;;;;3.10;1.80;;;;;;;7.73;53.36;94665.69;5027201;28;20366;-70
2023/03/23 11:00:08;;;;;;;1.80;1.70;;;;;;;7.15;54.50;94656.50;5023636;28;20049;-70
2023/03/23 11:02:48;;;;;;;3.08;1.70;;;;;;;7.50;54.28;94666.59;5020035;28;20037;-70
2023/03/23 11:05:19;;;;;;;2.38;1.08;;;;;;;6.49;55.75;94663.13;5017409;28;20046;-70
2023/03/23 11:07:56;;;;;;;1.65;1.25;;;;;;;7.49;54.07;94665.78;5020852;28;20625;-70
2023/03/23 11:10:26;;;;;;;1.95;1.52;;;;;;;5.67;58.66;94673.09;5006871;28;20052;-70
2023/03/23 11:12:52;;;;;;;2.33;1.35;;;;;;;7.20;55.03;94658.59;5021636;28;20072;-70
2023/03/23 11:15:32;;;;;;;2.63;2.03;;;;;;;7.41;54.46;94664.03;5019190;28;20090;-70
2023/03/23 11:17:59;;;;;;;1.30;1.15;;;;;;;7.79;53.59;94671.09;5021361;28;20030;-70
2023/03/23 11:20:26;;;;;;;2.03;1.80;;;;;;;6.81;55.60;94692.19;5022056;28;20037;-70
2023/03/23 11:22:52;;;;;;;1.77;1.42;;;;;;;6.71;56.29;94685.31;5024811;28;20056;-70
2023/03/23 11:25:17;;;;;;;2.90;1.90;;;;;;;7.25;54.25;94699.41;5021188;28;20041;-69
2023/03/23 11:27:43;;;;;;;1.67;1.58;;;;;;;7.25;54.49;94694.13;5023096;28;20042;-70
2023/03/23 11:30:11;;;;;;;1.52;1.42;;;;;;;6.83;56.77;94698.13;5022051;28;20043;-70
2023/03/23 11:32:37;;;;;;;2.45;2.25;;;;;;;5.24;61.32;94703.25;5020658;28;20060;-69
2023/03/23 11:35:08;;;;;;;2.45;1.30;;;;;;;6.20;57.14;94694.53;5004032;28;20095;-73
2023/03/23 11:37:46;;;;;;;2.28;1.67;;;;;;;8.01;53.74;94696.84;5023098;28;20029;-73
2023/03/23 11:40:19;;;;;;;1.70;1.30;;;;;;;8.25;52.73;94684.28;5023920;28;20049;-73
2023/03/23 11:43:09;;;;;;;1.20;1.10;;;;;;;7.98;53.13;94678.66;5024059;28;20645;-73
2023/03/23 11:45:48;;;;;;;3.83;2.95;;;;;;;7.87;54.30;94682.59;5010029;28;20053;-74
2023/03/23 11:48:38;;;;;;;1.73;1.50;;;;;;;7.65;54.87;94690.44;5023129;28;20037;-73
2023/03/23 11:51:14;;;;;;;2.70;1.38;;;;;;;8.28;52.59;94679.44;5020505;28;20512;-73
2023/03/23 11:53:49;;;;;;;1.88;1.52;;;;;;;7.79;53.68;94679.03;5020470;28;20035;-74